Universal, Indiana
Current Conditions -  °F | °C
As of 10:35 PM on Saturday 22 Nov 2014 (Local Time) from KPRG Reporting Station
Light Rain Light Rain  
Wind Chill: 50°   Ceiling: 8000
Heat Index: 50°   Visibility: 10mi
Dew Point: 46°   Wind: 8mph
Humidity: 87%   Direction: 200°SSW
Pressure: 29.99"   Gusts: NA
Location:  39.62°N, 87.45°W
Report Text: KPRG 230335Z AUTO 20007KT 10SM -RA SCT055 SCT065 OVC080 10/08 A2999 RMK AO2 P0001 T01000079
Loading
Personal Weather Stations






























Interactive Weather Map New forecast layout! Learn more

10-Day Weather Forecast

Advertisements
Track Severe Weather on mobile